createdAt,value
2018-04-15T00:00:45.018Z,985.22
2018-04-15T00:01:44.994Z,985.19
2018-04-15T00:02:44.911Z,985.16
2018-04-15T00:03:44.966Z,985.18
2018-04-15T00:04:44.872Z,985.17
2018-04-15T00:05:44.911Z,985.16
2018-04-15T00:06:44.787Z,985.17
2018-04-15T00:07:44.755Z,985.13
2018-04-15T00:08:44.713Z,985.12
2018-04-15T00:09:44.683Z,985.11
2018-04-15T00:10:44.627Z,985.08
2018-04-15T00:11:44.609Z,985.08
2018-04-15T00:12:44.538Z,985.05
2018-04-15T00:13:44.494Z,985.03
2018-04-15T00:14:44.457Z,985.05
2018-04-15T00:15:44.416Z,985.02
2018-04-15T00:16:44.386Z,985.02
2018-04-15T00:17:44.311Z,985.00
2018-04-15T00:18:44.291Z,985.00
2018-04-15T00:19:44.239Z,984.94
2018-04-15T00:20:44.203Z,984.97
2018-04-15T00:21:44.188Z,984.95
2018-04-15T00:22:44.147Z,984.91
2018-04-15T00:23:44.077Z,984.92
2018-04-15T00:24:44.074Z,984.89
2018-04-15T00:25:43.998Z,984.88
2018-04-15T00:26:44.001Z,984.90
2018-04-15T00:27:43.936Z,984.89
2018-04-15T00:28:43.936Z,984.90
2018-04-15T00:29:43.872Z,984.89
2018-04-15T00:30:43.846Z,984.86
2018-04-15T00:31:43.767Z,984.86
2018-04-15T00:32:43.728Z,984.82
2018-04-15T00:33:43.687Z,984.81
2018-04-15T00:34:43.683Z,984.82
2018-04-15T00:35:43.669Z,984.80
2018-04-15T00:36:43.595Z,984.79
2018-04-15T00:37:43.532Z,984.79
2018-04-15T00:38:43.482Z,984.79
2018-04-15T00:39:43.471Z,984.76
2018-04-15T00:40:43.424Z,984.71
2018-04-15T00:41:43.359Z,984.70
2018-04-15T00:42:43.331Z,984.66
2018-04-15T00:43:43.291Z,984.66
2018-04-15T00:44:43.261Z,984.65
2018-04-15T00:45:43.227Z,984.61
2018-04-15T00:46:43.177Z,984.59
2018-04-15T00:47:43.098Z,984.54
2018-04-15T00:48:43.069Z,984.51
2018-04-15T00:49:43.066Z,984.48
2018-04-15T00:50:42.998Z,984.46
2018-04-15T00:51:42.975Z,984.45
2018-04-15T00:52:42.936Z,984.44
2018-04-15T00:53:42.866Z,984.37
2018-04-15T00:54:42.833Z,984.33
2018-04-15T00:55:42.820Z,984.31
2018-04-15T00:56:42.776Z,984.27
2018-04-15T00:57:42.842Z,984.31
2018-04-15T00:58:42.698Z,984.26
2018-04-15T00:59:42.646Z,984.27
2018-04-15T01:00:42.574Z,984.29
2018-04-15T01:01:42.532Z,984.26
2018-04-15T01:02:42.507Z,984.28
2018-04-15T01:03:42.494Z,984.26
2018-04-15T01:04:42.441Z,984.23
2018-04-15T01:05:42.391Z,984.29
2018-04-15T01:06:42.337Z,984.25
2018-04-15T01:07:42.311Z,984.23
2018-04-15T01:08:42.252Z,984.26
2018-04-15T01:09:42.249Z,984.24
2018-04-15T01:10:42.206Z,984.24
2018-04-15T01:11:42.159Z,984.25
2018-04-15T01:12:42.146Z,984.23
2018-04-15T01:13:42.093Z,984.26
2018-04-15T01:14:42.026Z,984.27
2018-04-15T01:15:42.019Z,984.27
2018-04-15T01:16:41.950Z,984.22
2018-04-15T01:17:41.902Z,984.22
2018-04-15T01:18:41.897Z,984.24
2018-04-15T01:19:41.810Z,984.23
2018-04-15T01:20:41.791Z,984.25
2018-04-15T01:21:41.772Z,984.22
2018-04-15T01:22:41.748Z,984.23
2018-04-15T01:23:41.679Z,984.23
2018-04-15T01:24:41.620Z,984.23
2018-04-15T01:25:41.582Z,984.24
2018-04-15T01:26:41.581Z,984.21
2018-04-15T01:27:41.525Z,984.26
2018-04-15T01:28:41.499Z,984.22
2018-04-15T01:29:41.429Z,984.26
2018-04-15T01:30:41.391Z,984.24
2018-04-15T01:31:41.344Z,984.25
2018-04-15T01:32:41.297Z,984.25
2018-04-15T01:33:41.264Z,984.27
2018-04-15T01:34:41.304Z,984.25
2018-04-15T01:35:41.174Z,984.26
2018-04-15T01:36:41.120Z,984.23
2018-04-15T01:37:41.123Z,984.23
2018-04-15T01:38:41.041Z,984.24
2018-04-15T01:39:41.037Z,984.20
2018-04-15T01:40:40.999Z,984.18
2018-04-15T01:41:40.954Z,984.19
2018-04-15T01:42:40.897Z,984.14
2018-04-15T01:43:40.858Z,984.11
2018-04-15T01:44:40.816Z,984.11
2018-04-15T01:45:40.770Z,984.09
2018-04-15T01:46:40.742Z,984.06
2018-04-15T01:47:40.677Z,984.08
2018-04-15T01:48:40.666Z,984.07
2018-04-15T01:49:40.595Z,984.05
2018-04-15T01:50:40.593Z,984.08
2018-04-15T01:51:40.507Z,984.06
2018-04-15T01:52:40.527Z,984.03
2018-04-15T01:53:40.442Z,984.02
2018-04-15T01:54:40.427Z,984.03
2018-04-15T01:55:40.383Z,984.01
2018-04-15T01:56:40.330Z,984.03
2018-04-15T01:57:40.329Z,984.07
2018-04-15T01:58:40.253Z,984.08
2018-04-15T01:59:40.213Z,984.09
2018-04-15T02:00:40.208Z,984.07
2018-04-15T02:01:40.154Z,984.08
2018-04-15T02:02:40.066Z,984.10
2018-04-15T02:03:40.076Z,984.12
2018-04-15T02:04:40.107Z,984.16
2018-04-15T02:05:39.974Z,984.15
2018-04-15T02:06:39.952Z,984.15
2018-04-15T02:07:39.893Z,984.14
2018-04-15T02:08:39.869Z,984.13
2018-04-15T02:09:39.821Z,984.09
2018-04-15T02:10:39.755Z,984.13
2018-04-15T02:11:39.715Z,984.10
2018-04-15T02:12:39.699Z,984.08
2018-04-15T02:13:39.704Z,984.06
2018-04-15T02:14:39.582Z,984.10
2018-04-15T02:15:39.612Z,984.10
2018-04-15T02:16:39.512Z,984.05
2018-04-15T02:17:39.448Z,984.03
2018-04-15T02:18:39.460Z,984.01
2018-04-15T02:19:39.367Z,983.99
2018-04-15T02:20:39.386Z,983.98
2018-04-15T02:21:39.297Z,983.96
2018-04-15T02:22:39.284Z,983.99
2018-04-15T02:23:39.236Z,983.97
2018-04-15T02:24:39.226Z,983.93
2018-04-15T02:25:39.150Z,983.89
2018-04-15T02:26:39.116Z,983.88
2018-04-15T02:27:39.053Z,983.88
2018-04-15T02:28:39.028Z,983.88
2018-04-15T02:29:38.986Z,983.82
2018-04-15T02:30:38.939Z,983.79
2018-04-15T02:31:38.879Z,983.79
2018-04-15T02:32:38.907Z,983.82
2018-04-15T02:33:38.808Z,983.82
2018-04-15T02:34:38.785Z,983.82
2018-04-15T02:35:38.756Z,983.83
2018-04-15T02:36:38.688Z,983.82
2018-04-15T02:37:38.659Z,983.79
2018-04-15T02:38:38.669Z,983.79
2018-04-15T02:39:38.596Z,983.76
2018-04-15T02:40:38.531Z,983.74
2018-04-15T02:41:38.546Z,983.75
2018-04-15T02:42:38.443Z,983.70
2018-04-15T02:43:38.438Z,983.65
2018-04-15T02:44:38.348Z,983.63
2018-04-15T02:45:38.341Z,983.62
2018-04-15T02:46:38.299Z,983.60
2018-04-15T02:47:38.244Z,983.57
2018-04-15T02:48:38.224Z,983.61
2018-04-15T02:49:38.143Z,983.56
2018-04-15T02:50:38.131Z,983.58
2018-04-15T02:51:38.077Z,983.58
2018-04-15T02:52:38.044Z,983.57
2018-04-15T02:53:37.992Z,983.55
2018-04-15T02:54:37.952Z,983.55
2018-04-15T02:55:37.909Z,983.52
2018-04-15T02:56:37.874Z,983.52
2018-04-15T02:57:37.829Z,983.49
2018-04-15T02:58:37.764Z,983.52
2018-04-15T02:59:37.758Z,983.49
2018-04-15T03:00:37.722Z,983.50
2018-04-15T03:01:37.637Z,983.46
2018-04-15T03:02:37.656Z,983.50
2018-04-15T03:03:37.553Z,983.52
2018-04-15T03:04:37.542Z,983.51
2018-04-15T03:05:37.513Z,983.49
2018-04-15T03:06:37.483Z,983.45
2018-04-15T03:07:37.457Z,983.46
2018-04-15T03:08:37.375Z,983.47
2018-04-15T03:09:37.331Z,983.48
2018-04-15T03:10:37.314Z,983.50
2018-04-15T03:11:37.266Z,983.48
2018-04-15T03:12:37.249Z,983.51
2018-04-15T03:13:37.186Z,983.49
2018-04-15T03:14:37.162Z,983.52
2018-04-15T03:15:37.155Z,983.50
2018-04-15T03:16:37.048Z,983.49
2018-04-15T03:17:36.982Z,983.51
2018-04-15T03:18:36.936Z,983.52
2018-04-15T03:19:36.894Z,983.52
2018-04-15T03:20:36.861Z,983.57
2018-04-15T03:21:36.835Z,983.56
2018-04-15T03:22:36.838Z,983.54
2018-04-15T03:23:36.749Z,983.57
2018-04-15T03:24:36.723Z,983.55
2018-04-15T03:25:36.683Z,983.58
2018-04-15T03:26:36.628Z,983.57
2018-04-15T03:27:36.596Z,983.58
2018-04-15T03:28:36.540Z,983.61
2018-04-15T03:29:36.506Z,983.60
2018-04-15T03:30:36.479Z,983.61
2018-04-15T03:31:36.420Z,983.58
2018-04-15T03:32:36.375Z,983.56
2018-04-15T03:33:36.348Z,983.55
2018-04-15T03:34:36.310Z,983.52
2018-04-15T03:35:36.253Z,983.52
2018-04-15T03:36:36.220Z,983.51
2018-04-15T03:37:36.181Z,983.50
2018-04-15T03:38:36.128Z,983.50
2018-04-15T03:39:36.086Z,983.51
2018-04-15T03:40:36.045Z,983.50
2018-04-15T03:41:36.029Z,983.47
2018-04-15T03:42:35.962Z,983.44
2018-04-15T03:43:35.906Z,983.42
2018-04-15T03:44:35.881Z,983.39
2018-04-15T03:45:35.843Z,983.37
2018-04-15T03:46:35.798Z,983.40
2018-04-15T03:47:35.756Z,983.35
2018-04-15T03:48:35.717Z,983.36
2018-04-15T03:49:35.658Z,983.36
2018-04-15T03:50:35.682Z,983.36
2018-04-15T03:51:35.610Z,983.40
2018-04-15T03:52:35.544Z,983.38
2018-04-15T03:53:35.496Z,983.39
2018-04-15T03:54:35.486Z,983.44
2018-04-15T03:55:35.420Z,983.42
2018-04-15T03:56:35.397Z,983.44
2018-04-15T03:57:35.344Z,983.44
2018-04-15T03:58:35.335Z,983.42
2018-04-15T03:59:35.250Z,983.42
2018-04-15T04:00:35.215Z,983.47
2018-04-15T04:01:35.231Z,983.49
2018-04-15T04:02:35.135Z,983.51
2018-04-15T04:03:35.125Z,983.50
2018-04-15T04:04:35.065Z,983.50
2018-04-15T04:05:35.024Z,983.51
2018-04-15T04:06:35.010Z,983.46
2018-04-15T04:07:34.928Z,983.42
2018-04-15T04:08:34.867Z,983.48
2018-04-15T04:09:34.880Z,983.48
2018-04-15T04:10:34.791Z,983.44
2018-04-15T04:11:34.767Z,983.46
2018-04-15T04:12:34.721Z,983.42
2018-04-15T04:13:34.737Z,983.47
2018-04-15T04:14:34.628Z,983.43
2018-04-15T04:15:34.619Z,983.45
2018-04-15T04:16:34.557Z,983.35
2018-04-15T04:17:34.548Z,983.36
2018-04-15T04:18:34.513Z,983.30
2018-04-15T04:19:34.446Z,983.27
2018-04-15T04:20:34.416Z,983.25
2018-04-15T04:21:34.340Z,983.23
2018-04-15T04:22:34.299Z,983.24
2018-04-15T04:23:34.242Z,983.23
2018-04-15T04:24:34.215Z,983.21
2018-04-15T04:25:34.166Z,983.17
2018-04-15T04:26:34.134Z,983.15
2018-04-15T04:27:34.075Z,983.14
2018-04-15T04:28:34.041Z,983.16
2018-04-15T04:29:34.042Z,983.19
2018-04-15T04:30:34.016Z,983.21
2018-04-15T04:31:33.923Z,983.24
2018-04-15T04:32:33.884Z,983.22
2018-04-15T04:33:33.837Z,983.21
2018-04-15T04:34:33.805Z,983.13
2018-04-15T04:35:33.765Z,983.15
2018-04-15T04:36:33.753Z,983.15
2018-04-15T04:37:33.684Z,983.17
2018-04-15T04:38:33.841Z,983.11
2018-04-15T04:39:33.611Z,983.11
2018-04-15T04:40:33.552Z,983.14
2018-04-15T04:41:33.493Z,983.15
2018-04-15T04:42:33.493Z,983.12
2018-04-15T04:43:33.462Z,983.14
2018-04-15T04:44:33.408Z,983.13
2018-04-15T04:45:33.365Z,983.13
2018-04-15T04:46:33.334Z,983.11
2018-04-15T04:47:33.252Z,983.07
2018-04-15T04:48:33.198Z,983.09
2018-04-15T04:49:33.177Z,983.09
2018-04-15T04:50:33.154Z,983.06
2018-04-15T04:51:33.096Z,983.01
2018-04-15T04:52:33.054Z,983.03
2018-04-15T04:53:33.026Z,983.00
2018-04-15T04:54:32.971Z,983.02
2018-04-15T04:55:32.924Z,982.99
2018-04-15T04:56:32.895Z,983.00
2018-04-15T04:57:32.844Z,982.99
2018-04-15T04:58:32.818Z,982.97
2018-04-15T04:59:32.755Z,982.96
2018-04-15T05:00:32.722Z,982.95
2018-04-15T05:01:32.702Z,982.95
2018-04-15T05:02:32.628Z,982.96
2018-04-15T05:03:32.573Z,982.90
2018-04-15T05:04:32.575Z,982.89
2018-04-15T05:05:32.510Z,982.86
2018-04-15T05:06:32.479Z,982.82
2018-04-15T05:07:32.429Z,982.80
2018-04-15T05:08:32.403Z,982.77
2018-04-15T05:09:32.362Z,982.79
2018-04-15T05:10:32.344Z,982.80
2018-04-15T05:11:32.279Z,982.77
2018-04-15T05:12:32.219Z,982.76
2018-04-15T05:13:32.193Z,982.81
2018-04-15T05:14:32.124Z,982.76
2018-04-15T05:15:32.083Z,982.70
2018-04-15T05:16:32.053Z,982.73
2018-04-15T05:17:32.014Z,982.74
2018-04-15T05:18:31.967Z,982.76
2018-04-15T05:19:32.021Z,982.68
2018-04-15T05:20:31.907Z,982.82
2018-04-15T05:21:31.869Z,982.73
2018-04-15T05:22:31.866Z,982.75
2018-04-15T05:23:31.772Z,982.74
2018-04-15T05:24:31.765Z,982.72
2018-04-15T05:25:31.713Z,982.74
2018-04-15T05:26:31.649Z,982.71
2018-04-15T05:27:31.624Z,982.65
2018-04-15T05:28:31.563Z,982.63
2018-04-15T05:29:31.513Z,982.62
2018-04-15T05:30:31.517Z,982.59
2018-04-15T05:31:31.445Z,982.55
2018-04-15T05:32:31.410Z,982.55
2018-04-15T05:33:31.369Z,982.49
2018-04-15T05:34:31.355Z,982.46
2018-04-15T05:35:31.322Z,982.44
2018-04-15T05:36:31.254Z,982.44
2018-04-15T05:37:31.275Z,982.46
2018-04-15T05:38:31.185Z,982.42
2018-04-15T05:39:31.159Z,982.45
2018-04-15T05:40:31.200Z,982.46
2018-04-15T05:41:31.055Z,982.43
2018-04-15T05:42:31.008Z,982.43
2018-04-15T05:43:30.975Z,982.42
2018-04-15T05:44:30.922Z,982.37
2018-04-15T05:45:30.911Z,982.32
2018-04-15T05:46:30.866Z,982.31
2018-04-15T05:47:30.842Z,982.35
2018-04-15T05:48:30.770Z,982.31
2018-04-15T05:49:30.748Z,982.35
2018-04-15T05:50:30.727Z,982.32
2018-04-15T05:51:30.660Z,982.30
2018-04-15T05:52:30.610Z,982.32
2018-04-15T05:53:30.597Z,982.33
2018-04-15T05:54:31.019Z,982.31
2018-04-15T05:55:30.499Z,982.38
2018-04-15T05:56:30.499Z,982.34
2018-04-15T05:57:30.448Z,982.32
2018-04-15T05:58:30.370Z,982.34
2018-04-15T05:59:30.404Z,982.34
2018-04-15T06:00:30.300Z,982.33
2018-04-15T06:01:30.287Z,982.34
2018-04-15T06:02:30.217Z,982.31
2018-04-15T06:03:30.180Z,982.35
2018-04-15T06:04:30.136Z,982.27
2018-04-15T06:05:30.125Z,982.27
2018-04-15T06:06:30.062Z,982.29
2018-04-15T06:07:30.053Z,982.29
2018-04-15T06:08:30.002Z,982.28
2018-04-15T06:09:29.963Z,982.25
2018-04-15T06:10:29.907Z,982.23
2018-04-15T06:11:29.868Z,982.23
2018-04-15T06:12:29.836Z,982.22
2018-04-15T06:13:29.783Z,982.16
2018-04-15T06:14:29.798Z,982.15
2018-04-15T06:15:29.704Z,982.19
2018-04-15T06:16:29.699Z,982.20
2018-04-15T06:17:29.701Z,982.21
2018-04-15T06:18:29.586Z,982.15
2018-04-15T06:19:29.562Z,982.13
2018-04-15T06:20:29.521Z,982.12
2018-04-15T06:21:29.501Z,982.06
2018-04-15T06:22:29.460Z,982.05
2018-04-15T06:23:29.415Z,982.02
2018-04-15T06:24:29.378Z,982.00
2018-04-15T06:25:29.330Z,981.97
2018-04-15T06:26:29.302Z,981.97
2018-04-15T06:27:29.262Z,981.96
2018-04-15T06:28:29.230Z,981.94
2018-04-15T06:29:29.177Z,981.91
2018-04-15T06:30:29.155Z,981.90
2018-04-15T06:31:29.107Z,981.85
2018-04-15T06:32:29.098Z,981.89
2018-04-15T06:33:29.075Z,981.84
2018-04-15T06:34:29.209Z,981.88
2018-04-15T06:35:28.961Z,981.88
2018-04-15T06:36:28.919Z,981.88
2018-04-15T06:37:28.895Z,981.90
2018-04-15T06:38:28.847Z,981.87
2018-04-15T06:39:28.801Z,981.86
2018-04-15T06:40:28.759Z,981.90
2018-04-15T06:41:28.743Z,981.91
2018-04-15T06:42:28.716Z,981.81
2018-04-15T06:43:28.657Z,981.83
2018-04-15T06:44:28.633Z,981.82
2018-04-15T06:45:28.580Z,981.75
2018-04-15T06:46:28.564Z,981.73
2018-04-15T06:47:28.519Z,981.70
2018-04-15T06:48:28.474Z,981.71
2018-04-15T06:49:28.462Z,981.73
2018-04-15T06:50:28.418Z,981.71
2018-04-15T06:51:28.383Z,981.66
2018-04-15T06:52:28.341Z,981.65
2018-04-15T06:53:28.284Z,981.65
2018-04-15T06:54:28.264Z,981.66
2018-04-15T06:55:28.203Z,981.66
2018-04-15T06:56:28.279Z,981.58
2018-04-15T06:57:28.156Z,981.57
2018-04-15T06:58:28.166Z,981.63
2018-04-15T06:59:28.089Z,981.63
2018-04-15T07:00:28.069Z,981.62
2018-04-15T07:01:28.042Z,981.60
2018-04-15T07:02:27.972Z,981.65
2018-04-15T07:03:27.985Z,981.62
2018-04-15T07:04:27.886Z,981.60
2018-04-15T07:05:27.880Z,981.58
2018-04-15T07:06:27.839Z,981.55
2018-04-15T07:07:27.827Z,981.54
2018-04-15T07:08:27.776Z,981.51
2018-04-15T07:09:27.728Z,981.50
2018-04-15T07:10:27.690Z,981.50
2018-04-15T07:11:27.666Z,981.52
2018-04-15T07:12:27.639Z,981.54
2018-04-15T07:13:27.620Z,981.56
2018-04-15T07:14:27.585Z,981.56
2018-04-15T07:15:27.556Z,981.52
2018-04-15T07:16:27.542Z,981.54
2018-04-15T07:17:27.511Z,981.51
2018-04-15T07:18:27.476Z,981.45
2018-04-15T07:19:27.425Z,981.42
2018-04-15T07:20:27.402Z,981.43
2018-04-15T07:21:27.365Z,981.37
2018-04-15T07:22:27.339Z,981.35
2018-04-15T07:23:27.309Z,981.35
2018-04-15T07:24:27.282Z,981.34
2018-04-15T07:25:27.242Z,981.30
2018-04-15T07:26:27.227Z,981.35
2018-04-15T07:27:27.202Z,981.35
2018-04-15T07:28:27.168Z,981.40
2018-04-15T07:29:27.141Z,981.41
2018-04-15T07:30:27.149Z,981.45
2018-04-15T07:31:27.079Z,981.42
2018-04-15T07:32:27.059Z,981.45
2018-04-15T07:33:27.040Z,981.46
2018-04-15T07:34:26.999Z,981.46
2018-04-15T07:35:26.988Z,981.48
2018-04-15T07:36:26.957Z,981.50
2018-04-15T07:37:26.919Z,981.48
2018-04-15T07:38:26.895Z,981.53
2018-04-15T07:39:26.866Z,981.56
2018-04-15T07:40:26.856Z,981.56
2018-04-15T07:41:26.838Z,981.55
2018-04-15T07:42:26.801Z,981.55
2018-04-15T07:43:26.768Z,981.57
2018-04-15T07:44:26.805Z,981.60
2018-04-15T07:45:26.725Z,981.64
2018-04-15T07:46:26.783Z,981.63
2018-04-15T07:47:26.671Z,981.68
2018-04-15T07:48:26.647Z,981.67
2018-04-15T07:49:26.629Z,981.72
2018-04-15T07:50:26.677Z,981.68
2018-04-15T07:51:26.650Z,981.71
2018-04-15T07:52:26.551Z,981.72
2018-04-15T07:53:26.532Z,981.73
2018-04-15T07:54:26.536Z,981.78
2018-04-15T07:55:26.501Z,981.76
2018-04-15T07:56:26.475Z,981.82
2018-04-15T07:57:26.969Z,981.88
2018-04-15T07:58:26.438Z,981.82
2018-04-15T07:59:26.398Z,981.83
2018-04-15T08:00:26.373Z,981.82
2018-04-15T08:01:26.386Z,981.90
2018-04-15T08:02:26.343Z,981.86
2018-04-15T08:03:26.296Z,981.82
2018-04-15T08:04:26.282Z,981.83
2018-04-15T08:05:26.267Z,981.85
2018-04-15T08:06:26.238Z,981.86
2018-04-15T08:07:26.228Z,981.80
2018-04-15T08:08:26.198Z,981.83
2018-04-15T08:09:26.167Z,981.81
2018-04-15T08:10:26.274Z,981.87
2018-04-15T08:11:26.130Z,981.83
2018-04-15T08:12:26.138Z,981.88
2018-04-15T08:13:26.139Z,981.88
2018-04-15T08:14:26.060Z,981.87
2018-04-15T08:15:26.050Z,981.88
2018-04-15T08:16:26.024Z,981.84
2018-04-15T08:17:26.045Z,981.83
2018-04-15T08:18:25.978Z,981.86
2018-04-15T08:19:26.008Z,981.86
2018-04-15T08:20:25.963Z,981.84
2018-04-15T08:21:25.946Z,981.86
2018-04-15T08:22:25.949Z,981.78
2018-04-15T08:23:25.889Z,981.80
2018-04-15T08:24:25.898Z,981.78
2018-04-15T08:25:25.846Z,981.76
2018-04-15T08:26:25.838Z,981.75
2018-04-15T08:27:25.836Z,981.75
2018-04-15T08:28:25.782Z,981.72
2018-04-15T08:29:25.754Z,981.72
2018-04-15T08:30:25.734Z,981.71
2018-04-15T08:31:25.716Z,981.68
2018-04-15T08:32:25.703Z,981.63
2018-04-15T08:33:25.693Z,981.64
2018-04-15T08:34:25.668Z,981.62
2018-04-15T08:35:25.631Z,981.58
2018-04-15T08:36:25.644Z,981.58
2018-04-15T08:37:25.613Z,981.58
2018-04-15T08:38:25.573Z,981.55
2018-04-15T08:39:25.608Z,981.56
2018-04-15T08:40:25.555Z,981.55
2018-04-15T08:41:25.507Z,981.55
2018-04-15T08:42:25.493Z,981.52
2018-04-15T08:43:25.476Z,981.53
2018-04-15T08:44:25.437Z,981.51
2018-04-15T08:45:25.430Z,981.50
2018-04-15T08:46:25.425Z,981.47
2018-04-15T08:47:25.370Z,981.47
2018-04-15T08:48:25.422Z,981.46
2018-04-15T08:49:25.383Z,981.40
2018-04-15T08:50:25.435Z,981.41
2018-04-15T08:51:25.294Z,981.41
2018-04-15T08:52:25.320Z,981.45
2018-04-15T08:53:25.252Z,981.40
2018-04-15T08:54:25.258Z,981.39
2018-04-15T08:55:25.203Z,981.34
2018-04-15T08:56:25.187Z,981.33
2018-04-15T08:57:25.171Z,981.31
2018-04-15T08:58:25.178Z,981.29
2018-04-15T08:59:25.119Z,981.30
2018-04-15T09:00:25.108Z,981.36
2018-04-15T09:01:25.073Z,981.34
2018-04-15T09:02:25.053Z,981.34
2018-04-15T09:03:25.043Z,981.32
2018-04-15T09:04:25.036Z,981.29
2018-04-15T09:05:24.994Z,981.25
2018-04-15T09:06:24.960Z,981.21
2018-04-15T09:07:24.920Z,981.23
2018-04-15T09:08:24.933Z,981.22
2018-04-15T09:09:24.887Z,981.14
2018-04-15T09:10:24.878Z,981.09
2018-04-15T09:11:24.856Z,981.09
2018-04-15T09:12:24.812Z,981.05
2018-04-15T09:13:24.799Z,981.09
2018-04-15T09:14:24.767Z,981.07
2018-04-15T09:15:24.750Z,981.04
2018-04-15T09:16:24.754Z,981.04
2018-04-15T09:17:24.715Z,981.00
2018-04-15T09:18:24.714Z,981.01
2018-04-15T09:19:24.682Z,980.97
2018-04-15T09:20:24.667Z,980.98
2018-04-15T09:21:24.617Z,980.95
2018-04-15T09:22:24.615Z,980.96
2018-04-15T09:23:24.614Z,980.96
2018-04-15T09:24:24.575Z,980.96
2018-04-15T09:25:24.537Z,980.92
2018-04-15T09:26:24.550Z,980.93
2018-04-15T09:27:24.487Z,980.92
2018-04-15T09:28:24.462Z,980.93
2018-04-15T09:29:24.438Z,980.91
2018-04-15T09:30:24.427Z,980.90
2018-04-15T09:31:24.435Z,980.92
2018-04-15T09:32:24.402Z,980.90
2018-04-15T09:33:24.358Z,980.94
2018-04-15T09:34:24.354Z,980.89
2018-04-15T09:35:24.324Z,980.90
2018-04-15T09:36:24.289Z,980.90
2018-04-15T09:37:24.259Z,980.90
2018-04-15T09:38:24.246Z,980.93
2018-04-15T09:39:24.249Z,980.88
2018-04-15T09:40:24.207Z,980.89
2018-04-15T09:41:24.197Z,980.89
2018-04-15T09:42:24.186Z,980.86
2018-04-15T09:43:24.175Z,980.85
2018-04-15T09:44:24.140Z,980.85
2018-04-15T09:45:24.101Z,980.85
2018-04-15T09:46:24.154Z,980.86
2018-04-15T09:47:24.090Z,980.86
2018-04-15T09:48:24.049Z,980.84
2018-04-15T09:49:24.039Z,980.83
2018-04-15T09:50:24.020Z,980.81
2018-04-15T09:51:24.002Z,980.81
2018-04-15T09:52:23.971Z,980.77
2018-04-15T09:53:23.997Z,980.82
2018-04-15T09:54:23.943Z,980.83
2018-04-15T09:55:23.911Z,980.76
2018-04-15T09:56:23.907Z,980.75
2018-04-15T09:57:23.916Z,980.78
2018-04-15T09:58:25.709Z,980.73
2018-04-15T09:59:23.836Z,980.73
2018-04-15T10:00:23.832Z,980.74
2018-04-15T10:01:23.811Z,980.76
2018-04-15T10:02:23.788Z,980.74
2018-04-15T10:03:23.786Z,980.75
2018-04-15T10:04:23.751Z,980.76
2018-04-15T10:05:23.755Z,980.73
2018-04-15T10:06:23.704Z,980.75
2018-04-15T10:07:23.698Z,980.72
2018-04-15T10:08:23.666Z,980.75
2018-04-15T10:09:23.666Z,980.77
2018-04-15T10:10:23.646Z,980.74
2018-04-15T10:11:23.606Z,980.73
2018-04-15T10:12:23.623Z,980.75
2018-04-15T10:13:23.612Z,980.75
2018-04-15T10:14:23.567Z,980.79
2018-04-15T10:15:23.581Z,980.77
2018-04-15T10:16:23.533Z,980.73
2018-04-15T10:17:23.507Z,980.71
2018-04-15T10:18:23.500Z,980.71
2018-04-15T10:19:23.445Z,980.73
2018-04-15T10:20:23.435Z,980.73
2018-04-15T10:21:23.437Z,980.75
2018-04-15T10:22:23.384Z,980.75
2018-04-15T10:23:23.355Z,980.71
2018-04-15T10:24:23.361Z,980.66
2018-04-15T10:25:23.361Z,980.66
2018-04-15T10:26:23.292Z,980.66
2018-04-15T10:27:23.313Z,980.63
2018-04-15T10:28:23.258Z,980.61
2018-04-15T10:29:23.265Z,980.62
2018-04-15T10:30:23.218Z,980.60
2018-04-15T10:31:23.213Z,980.59
2018-04-15T10:32:23.191Z,980.58
2018-04-15T10:33:23.186Z,980.60
2018-04-15T10:34:23.132Z,980.63
2018-04-15T10:35:23.117Z,980.59
2018-04-15T10:36:23.112Z,980.59
2018-04-15T10:37:23.108Z,980.58
2018-04-15T10:38:23.073Z,980.57
2018-04-15T10:39:23.029Z,980.52
2018-04-15T10:40:23.008Z,980.50
2018-04-15T10:41:23.047Z,980.50
2018-04-15T10:42:22.981Z,980.46
2018-04-15T10:43:22.950Z,980.52
2018-04-15T10:44:22.917Z,980.49
2018-04-15T10:45:22.927Z,980.52
2018-04-15T10:46:25.022Z,980.50
2018-04-15T10:47:22.861Z,980.49
2018-04-15T10:48:22.827Z,980.45
2018-04-15T10:49:22.838Z,980.48
2018-04-15T10:50:22.840Z,980.47
2018-04-15T10:51:22.785Z,980.47
2018-04-15T10:52:22.778Z,980.44
2018-04-15T10:53:22.738Z,980.45
2018-04-15T10:54:22.713Z,980.42
2018-04-15T10:55:25.234Z,980.45
2018-04-15T10:56:22.712Z,980.46
2018-04-15T10:57:22.660Z,980.44
2018-04-15T10:58:22.625Z,980.41
2018-04-15T10:59:22.627Z,980.40
2018-04-15T11:00:22.569Z,980.36
2018-04-15T11:01:22.541Z,980.37
2018-04-15T11:02:22.549Z,980.37
2018-04-15T11:03:22.516Z,980.36
2018-04-15T11:04:22.476Z,980.34
2018-04-15T11:05:22.460Z,980.33
2018-04-15T11:06:22.436Z,980.30
2018-04-15T11:07:22.433Z,980.39
2018-04-15T11:08:22.393Z,980.32
2018-04-15T11:09:22.379Z,980.34
2018-04-15T11:10:22.333Z,980.35
2018-04-15T11:11:22.347Z,980.32
2018-04-15T11:12:22.367Z,980.33
2018-04-15T11:13:22.261Z,980.33
2018-04-15T11:14:22.270Z,980.33
2018-04-15T11:15:22.228Z,980.32
2018-04-15T11:16:22.226Z,980.34
2018-04-15T11:17:22.182Z,980.35
2018-04-15T11:18:22.193Z,980.36
2018-04-15T11:19:22.164Z,980.38
2018-04-15T11:20:22.129Z,980.36
2018-04-15T11:21:22.088Z,980.36
2018-04-15T11:22:22.073Z,980.36
2018-04-15T11:23:22.047Z,980.34
2018-04-15T11:24:22.024Z,980.36
2018-04-15T11:25:22.041Z,980.36
2018-04-15T11:26:21.988Z,980.31
2018-04-15T11:27:21.990Z,980.24
2018-04-15T11:28:21.935Z,980.23
2018-04-15T11:29:21.938Z,980.26
2018-04-15T11:30:21.923Z,980.23
2018-04-15T11:31:21.874Z,980.20
2018-04-15T11:32:21.857Z,980.23
2018-04-15T11:33:21.843Z,980.22
2018-04-15T11:34:21.848Z,980.21
2018-04-15T11:35:21.797Z,980.22
2018-04-15T11:36:21.769Z,980.24
2018-04-15T11:37:21.761Z,980.23
2018-04-15T11:38:21.737Z,980.21
2018-04-15T11:39:21.741Z,980.19
2018-04-15T11:40:21.689Z,980.21
2018-04-15T11:41:21.680Z,980.15
2018-04-15T11:42:21.676Z,980.15
2018-04-15T11:43:21.653Z,980.15
2018-04-15T11:44:21.593Z,980.12
2018-04-15T11:45:21.600Z,980.15
2018-04-15T11:46:21.554Z,980.16
2018-04-15T11:47:21.537Z,980.13
2018-04-15T11:48:21.525Z,980.14
2018-04-15T11:49:21.499Z,980.14
2018-04-15T11:50:21.506Z,980.13
2018-04-15T11:51:21.474Z,980.13
2018-04-15T11:52:21.451Z,980.16
2018-04-15T11:53:21.411Z,980.12
2018-04-15T11:54:21.386Z,980.14
2018-04-15T11:55:21.413Z,980.12
2018-04-15T11:56:21.363Z,980.10
2018-04-15T11:57:21.360Z,980.06
2018-04-15T11:58:21.312Z,980.05
2018-04-15T11:59:21.337Z,980.04
2018-04-15T12:00:21.256Z,980.06
2018-04-15T12:01:21.390Z,980.09
2018-04-15T12:02:21.246Z,980.03
2018-04-15T12:03:21.207Z,980.04
2018-04-15T12:04:21.216Z,980.06
2018-04-15T12:05:21.244Z,980.04
2018-04-15T12:06:21.136Z,980.03
2018-04-15T12:07:21.138Z,980.03
2018-04-15T12:08:21.119Z,979.99
2018-04-15T12:09:21.097Z,980.00
2018-04-15T12:10:21.062Z,980.00
2018-04-15T12:11:21.033Z,979.99
2018-04-15T12:12:21.028Z,979.97
2018-04-15T12:13:21.005Z,979.94
2018-04-15T12:14:21.008Z,979.94
2018-04-15T12:15:20.971Z,979.94
2018-04-15T12:16:20.928Z,979.90
2018-04-15T12:17:20.934Z,979.90
2018-04-15T12:18:20.903Z,979.89
2018-04-15T12:19:20.884Z,979.84
2018-04-15T12:20:20.833Z,979.89
2018-04-15T12:21:20.878Z,979.87
2018-04-15T12:22:20.829Z,979.85
2018-04-15T12:23:20.828Z,979.87
2018-04-15T12:24:20.775Z,979.83
2018-04-15T12:25:20.731Z,979.82
2018-04-15T12:26:20.765Z,979.83
2018-04-15T12:27:20.708Z,979.77
2018-04-15T12:28:20.695Z,979.76